LJLJ/LJU METAR and TAF weather

Enter ICAO airport designator
Station Type Date Time Source
LJLJ METAR 2023/01/30 12:00 UTC NOAA

LJLJ 301200Z 07003KT CAVOK M00/M05 Q1015 NOSIG


Station Type Date Time Source
LJLJ Decoded METAR 2023/01/30 12:00 UTC NOAA

Ljubljana / Brnik, Slovenia (LJLJ) 46-13N 014-29E 362M
Jan 30, 2023 - 07:00 AM EST / 2023.01.30 1200 UTC
Wind: from the ENE (070 degrees) at 3 MPH (3 KT):0
Visibility: greater than 7 mile(s):0
Temperature: 32 F (0 C)
Dew Point: 23 F (-5 C)
Relative Humidity: 69%
Pressure (altimeter): 29.97 in. Hg (1015 hPa)
ob: LJLJ 301200Z 07003KT CAVOK M00/M05 Q1015 NOSIG
cycle: 12

Station Type Date Time Source
LJLJ TAF 2023/01/30 12:06 UTC NOAA

TAF LJLJ 301100Z 3012/3112 VRB01KT CAVOK
BECMG 3022/3100 32012G22KT
TEMPO 3100/3104 32015G35KT
BECMG 3104/3106 30005KT

Example: see airport list